sensor_id;sensor_type;location;lat;lon;timestamp;P1;durP1;ratioP1;P2;durP2;ratioP2
33403;SDS011;19751;40.274;18.268;2023-07-13T00:00:17;4.97;;;3.78;;
33403;SDS011;19751;40.274;18.268;2023-07-13T00:02:43;4.93;;;3.58;;
33403;SDS011;19751;40.274;18.268;2023-07-13T00:05:09;5.20;;;3.40;;
33403;SDS011;19751;40.274;18.268;2023-07-13T00:07:35;5.00;;;3.90;;
33403;SDS011;19751;40.274;18.268;2023-07-13T00:10:01;5.78;;;4.07;;
33403;SDS011;19751;40.274;18.268;2023-07-13T00:12:29;4.40;;;4.00;;
33403;SDS011;19751;40.274;18.268;2023-07-13T00:14:59;9.05;;;4.07;;
33403;SDS011;19751;40.274;18.268;2023-07-13T00:17:26;4.35;;;3.67;;
33403;SDS011;19751;40.274;18.268;2023-07-13T00:19:52;4.30;;;3.53;;
33403;SDS011;19751;40.274;18.268;2023-07-13T00:22:18;4.50;;;3.17;;
33403;SDS011;19751;40.274;18.268;2023-07-13T00:24:44;3.88;;;3.47;;
33403;SDS011;19751;40.274;18.268;2023-07-13T00:27:11;5.20;;;3.83;;
33403;SDS011;19751;40.274;18.268;2023-07-13T00:29:37;4.35;;;3.95;;
33403;SDS011;19751;40.274;18.268;2023-07-13T00:32:03;3.75;;;3.38;;
33403;SDS011;19751;40.274;18.268;2023-07-13T00:34:30;5.68;;;3.20;;
33403;SDS011;19751;40.274;18.268;2023-07-13T00:36:56;5.45;;;3.90;;
33403;SDS011;19751;40.274;18.268;2023-07-13T00:39:22;4.93;;;3.63;;
33403;SDS011;19751;40.274;18.268;2023-07-13T00:41:48;4.45;;;3.17;;
33403;SDS011;19751;40.274;18.268;2023-07-13T00:44:14;5.10;;;4.00;;
33403;SDS011;19751;40.274;18.268;2023-07-13T00:46:40;7.13;;;3.65;;
33403;SDS011;19751;40.274;18.268;2023-07-13T00:49:07;4.90;;;3.20;;
33403;SDS011;19751;40.274;18.268;2023-07-13T00:51:58;3.72;;;3.20;;
33403;SDS011;19751;40.274;18.268;2023-07-13T00:54:34;5.35;;;3.50;;
33403;SDS011;19751;40.274;18.268;2023-07-13T00:57:05;5.15;;;3.90;;
33403;SDS011;19751;40.274;18.268;2023-07-13T00:59:34;5.22;;;3.75;;
33403;SDS011;19751;40.274;18.268;2023-07-13T01:02:02;6.97;;;3.72;;
33403;SDS011;19751;40.274;18.268;2023-07-13T01:04:28;4.53;;;3.38;;
33403;SDS011;19751;40.274;18.268;2023-07-13T01:06:54;8.32;;;3.83;;
33403;SDS011;19751;40.274;18.268;2023-07-13T01:09:19;7.43;;;4.05;;
33403;SDS011;19751;40.274;18.268;2023-07-13T01:11:46;6.00;;;3.90;;
33403;SDS011;19751;40.274;18.268;2023-07-13T01:14:12;5.20;;;3.55;;
33403;SDS011;19751;40.274;18.268;2023-07-13T01:16:39;4.50;;;3.78;;
33403;SDS011;19751;40.274;18.268;2023-07-13T01:19:18;3.38;;;3.00;;
33403;SDS011;19751;40.274;18.268;2023-07-13T01:22:19;4.13;;;3.72;;
33403;SDS011;19751;40.274;18.268;2023-07-13T01:24:47;6.93;;;3.63;;
33403;SDS011;19751;40.274;18.268;2023-07-13T01:27:14;5.80;;;3.65;;
33403;SDS011;19751;40.274;18.268;2023-07-13T01:29:43;4.95;;;3.72;;
33403;SDS011;19751;40.274;18.268;2023-07-13T01:32:14;4.80;;;3.72;;
33403;SDS011;19751;40.274;18.268;2023-07-13T01:34:49;6.80;;;4.15;;
33403;SDS011;19751;40.274;18.268;2023-07-13T01:37:16;5.00;;;3.80;;
33403;SDS011;19751;40.274;18.268;2023-07-13T01:39:42;6.05;;;3.28;;
33403;SDS011;19751;40.274;18.268;2023-07-13T01:42:07;7.07;;;4.53;;
33403;SDS011;19751;40.274;18.268;2023-07-13T01:44:33;5.75;;;3.78;;
33403;SDS011;19751;40.274;18.268;2023-07-13T01:47:00;4.65;;;3.55;;
33403;SDS011;19751;40.274;18.268;2023-07-13T01:49:26;5.13;;;3.83;;
33403;SDS011;19751;40.274;18.268;2023-07-13T01:51:52;4.43;;;3.85;;
33403;SDS011;19751;40.274;18.268;2023-07-13T01:54:17;9.77;;;4.80;;
33403;SDS011;19751;40.274;18.268;2023-07-13T01:56:43;3.88;;;3.47;;
33403;SDS011;19751;40.274;18.268;2023-07-13T01:59:08;4.30;;;3.90;;
33403;SDS011;19751;40.274;18.268;2023-07-13T02:01:34;4.53;;;3.33;;
33403;SDS011;19751;40.274;18.268;2023-07-13T02:04:00;4.00;;;3.40;;
33403;SDS011;19751;40.274;18.268;2023-07-13T02:06:27;5.93;;;3.58;;
33403;SDS011;19751;40.274;18.268;2023-07-13T02:08:52;5.20;;;4.07;;
33403;SDS011;19751;40.274;18.268;2023-07-13T02:11:18;5.35;;;3.85;;
33403;SDS011;19751;40.274;18.268;2023-07-13T02:13:43;7.05;;;3.88;;
33403;SDS011;19751;40.274;18.268;2023-07-13T02:16:09;5.32;;;3.30;;
33403;SDS011;19751;40.274;18.268;2023-07-13T02:18:34;5.43;;;3.75;;
33403;SDS011;19751;40.274;18.268;2023-07-13T02:21:00;4.72;;;3.30;;
33403;SDS011;19751;40.274;18.268;2023-07-13T02:23:25;4.47;;;3.63;;
33403;SDS011;19751;40.274;18.268;2023-07-13T02:25:55;7.20;;;4.10;;
33403;SDS011;19751;40.274;18.268;2023-07-13T02:28:21;5.50;;;3.95;;
33403;SDS011;19751;40.274;18.268;2023-07-13T02:30:46;4.28;;;3.60;;
33403;SDS011;19751;40.274;18.268;2023-07-13T02:33:12;6.30;;;3.90;;
33403;SDS011;19751;40.274;18.268;2023-07-13T02:35:37;5.53;;;3.55;;
33403;SDS011;19751;40.274;18.268;2023-07-13T02:38:03;5.00;;;3.60;;
33403;SDS011;19751;40.274;18.268;2023-07-13T02:40:29;6.63;;;3.40;;
33403;SDS011;19751;40.274;18.268;2023-07-13T02:42:58;6.03;;;3.85;;
33403;SDS011;19751;40.274;18.268;2023-07-13T02:45:24;5.78;;;3.00;;
33403;SDS011;19751;40.274;18.268;2023-07-13T02:47:49;7.90;;;4.85;;
33403;SDS011;19751;40.274;18.268;2023-07-13T02:50:15;6.30;;;4.38;;
33403;SDS011;19751;40.274;18.268;2023-07-13T02:52:40;7.10;;;3.85;;
33403;SDS011;19751;40.274;18.268;2023-07-13T02:55:06;9.43;;;3.67;;
33403;SDS011;19751;40.274;18.268;2023-07-13T02:57:32;6.38;;;3.60;;
33403;SDS011;19751;40.274;18.268;2023-07-13T02:59:58;4.68;;;3.45;;
33403;SDS011;19751;40.274;18.268;2023-07-13T03:02:24;5.25;;;4.10;;
33403;SDS011;19751;40.274;18.268;2023-07-13T03:04:53;7.95;;;4.50;;
33403;SDS011;19751;40.274;18.268;2023-07-13T03:07:19;6.85;;;3.75;;
33403;SDS011;19751;40.274;18.268;2023-07-13T03:09:44;6.90;;;3.85;;
33403;SDS011;19751;40.274;18.268;2023-07-13T03:12:10;5.65;;;3.90;;
33403;SDS011;19751;40.274;18.268;2023-07-13T03:14:35;6.60;;;4.03;;
33403;SDS011;19751;40.274;18.268;2023-07-13T03:17:01;7.00;;;3.75;;
33403;SDS011;19751;40.274;18.268;2023-07-13T03:19:26;7.50;;;4.15;;
33403;SDS011;19751;40.274;18.268;2023-07-13T03:21:52;5.88;;;3.97;;
33403;SDS011;19751;40.274;18.268;2023-07-13T03:24:18;4.53;;;3.63;;
33403;SDS011;19751;40.274;18.268;2023-07-13T03:26:43;6.53;;;3.67;;
33403;SDS011;19751;40.274;18.268;2023-07-13T03:29:09;7.28;;;3.88;;
33403;SDS011;19751;40.274;18.268;2023-07-13T03:31:35;4.45;;;3.38;;
33403;SDS011;19751;40.274;18.268;2023-07-13T03:34:01;5.40;;;3.95;;
33403;SDS011;19751;40.274;18.268;2023-07-13T03:36:28;5.22;;;3.42;;
33403;SDS011;19751;40.274;18.268;2023-07-13T03:38:56;4.43;;;3.20;;
33403;SDS011;19751;40.274;18.268;2023-07-13T03:41:24;4.70;;;4.05;;
33403;SDS011;19751;40.274;18.268;2023-07-13T03:43:50;5.88;;;4.00;;
33403;SDS011;19751;40.274;18.268;2023-07-13T03:46:17;5.32;;;3.53;;
33403;SDS011;19751;40.274;18.268;2023-07-13T03:48:44;8.93;;;4.07;;
33403;SDS011;19751;40.274;18.268;2023-07-13T03:51:11;5.93;;;3.50;;
33403;SDS011;19751;40.274;18.268;2023-07-13T03:53:40;6.07;;;3.58;;
33403;SDS011;19751;40.274;18.268;2023-07-13T03:56:07;6.40;;;3.85;;
33403;SDS011;19751;40.274;18.268;2023-07-13T03:58:38;7.30;;;4.63;;
33403;SDS011;19751;40.274;18.268;2023-07-13T04:01:05;5.35;;;4.07;;
33403;SDS011;19751;40.274;18.268;2023-07-13T04:03:33;6.38;;;4.18;;
33403;SDS011;19751;40.274;18.268;2023-07-13T04:05:59;4.45;;;3.72;;
33403;SDS011;19751;40.274;18.268;2023-07-13T04:08:30;7.03;;;5.00;;
33403;SDS011;19751;40.274;18.268;2023-07-13T04:10:57;6.88;;;4.20;;
33403;SDS011;19751;40.274;18.268;2023-07-13T04:13:24;4.43;;;3.45;;
33403;SDS011;19751;40.274;18.268;2023-07-13T04:15:50;6.57;;;4.50;;
33403;SDS011;19751;40.274;18.268;2023-07-13T04:18:16;4.32;;;3.92;;
33403;SDS011;19751;40.274;18.268;2023-07-13T04:20:42;4.35;;;3.90;;
33403;SDS011;19751;40.274;18.268;2023-07-13T04:23:08;6.00;;;3.95;;
33403;SDS011;19751;40.274;18.268;2023-07-13T04:25:33;7.28;;;5.05;;
33403;SDS011;19751;40.274;18.268;2023-07-13T04:27:59;5.90;;;4.40;;
33403;SDS011;19751;40.274;18.268;2023-07-13T04:30:24;7.03;;;4.30;;
33403;SDS011;19751;40.274;18.268;2023-07-13T04:32:50;11.48;;;4.63;;
33403;SDS011;19751;40.274;18.268;2023-07-13T04:35:17;8.55;;;5.82;;
33403;SDS011;19751;40.274;18.268;2023-07-13T04:37:46;8.85;;;4.65;;
33403;SDS011;19751;40.274;18.268;2023-07-13T04:40:12;7.45;;;4.22;;
33403;SDS011;19751;40.274;18.268;2023-07-13T04:42:38;8.40;;;4.85;;
33403;SDS011;19751;40.274;18.268;2023-07-13T04:45:05;9.32;;;4.47;;
33403;SDS011;19751;40.274;18.268;2023-07-13T04:47:32;6.38;;;4.43;;
33403;SDS011;19751;40.274;18.268;2023-07-13T04:49:57;6.97;;;4.25;;
33403;SDS011;19751;40.274;18.268;2023-07-13T04:52:23;14.82;;;4.88;;
33403;SDS011;19751;40.274;18.268;2023-07-13T04:54:49;11.95;;;5.57;;
33403;SDS011;19751;40.274;18.268;2023-07-13T04:57:14;9.40;;;4.88;;
33403;SDS011;19751;40.274;18.268;2023-07-13T04:59:40;11.98;;;4.95;;
33403;SDS011;19751;40.274;18.268;2023-07-13T05:02:06;7.93;;;4.28;;
33403;SDS011;19751;40.274;18.268;2023-07-13T05:04:31;8.98;;;4.30;;
33403;SDS011;19751;40.274;18.268;2023-07-13T05:06:57;8.70;;;4.50;;
33403;SDS011;19751;40.274;18.268;2023-07-13T05:09:22;6.00;;;4.10;;
33403;SDS011;19751;40.274;18.268;2023-07-13T05:11:48;8.35;;;4.63;;
33403;SDS011;19751;40.274;18.268;2023-07-13T05:14:13;7.85;;;4.15;;
33403;SDS011;19751;40.274;18.268;2023-07-13T05:16:41;8.60;;;4.40;;
33403;SDS011;19751;40.274;18.268;2023-07-13T05:19:07;6.82;;;4.50;;
33403;SDS011;19751;40.274;18.268;2023-07-13T05:21:33;9.50;;;4.57;;
33403;SDS011;19751;40.274;18.268;2023-07-13T05:23:58;8.02;;;4.28;;
33403;SDS011;19751;40.274;18.268;2023-07-13T05:26:24;6.43;;;4.88;;
33403;SDS011;19751;40.274;18.268;2023-07-13T05:28:49;8.15;;;4.50;;
33403;SDS011;19751;40.274;18.268;2023-07-13T05:31:15;9.05;;;4.35;;
33403;SDS011;19751;40.274;18.268;2023-07-13T05:33:41;7.28;;;4.40;;
33403;SDS011;19751;40.274;18.268;2023-07-13T05:36:06;8.90;;;4.97;;
33403;SDS011;19751;40.274;18.268;2023-07-13T05:38:32;10.75;;;4.93;;
33403;SDS011;19751;40.274;18.268;2023-07-13T05:40:58;9.20;;;5.00;;
33403;SDS011;19751;40.274;18.268;2023-07-13T05:43:24;7.82;;;4.90;;
33403;SDS011;19751;40.274;18.268;2023-07-13T05:45:52;12.07;;;4.70;;
33403;SDS011;19751;40.274;18.268;2023-07-13T05:48:18;13.27;;;4.28;;
33403;SDS011;19751;40.274;18.268;2023-07-13T05:50:44;8.50;;;4.85;;
33403;SDS011;19751;40.274;18.268;2023-07-13T05:53:09;6.80;;;5.00;;
33403;SDS011;19751;40.274;18.268;2023-07-13T05:55:35;10.57;;;4.15;;
33403;SDS011;19751;40.274;18.268;2023-07-13T05:58:00;7.53;;;4.20;;
33403;SDS011;19751;40.274;18.268;2023-07-13T06:00:26;9.02;;;4.68;;
33403;SDS011;19751;40.274;18.268;2023-07-13T06:02:52;7.60;;;4.10;;
33403;SDS011;19751;40.274;18.268;2023-07-13T06:05:18;11.50;;;6.28;;
33403;SDS011;19751;40.274;18.268;2023-07-13T06:07:44;6.20;;;4.43;;
33403;SDS011;19751;40.274;18.268;2023-07-13T06:10:09;7.50;;;3.78;;
33403;SDS011;19751;40.274;18.268;2023-07-13T06:12:35;9.82;;;5.00;;
33403;SDS011;19751;40.274;18.268;2023-07-13T06:15:01;9.38;;;4.53;;
33403;SDS011;19751;40.274;18.268;2023-07-13T06:17:27;6.63;;;5.45;;
33403;SDS011;19751;40.274;18.268;2023-07-13T06:19:53;10.30;;;4.15;;
33403;SDS011;19751;40.274;18.268;2023-07-13T06:22:18;9.38;;;4.55;;
33403;SDS011;19751;40.274;18.268;2023-07-13T06:24:44;5.60;;;4.07;;
33403;SDS011;19751;40.274;18.268;2023-07-13T06:27:09;22.33;;;10.93;;
33403;SDS011;19751;40.274;18.268;2023-07-13T06:29:35;26.42;;;12.50;;
33403;SDS011;19751;40.274;18.268;2023-07-13T06:32:00;11.35;;;5.28;;
33403;SDS011;19751;40.274;18.268;2023-07-13T06:34:26;8.70;;;4.50;;
33403;SDS011;19751;40.274;18.268;2023-07-13T06:36:52;4.68;;;3.78;;
33403;SDS011;19751;40.274;18.268;2023-07-13T06:39:17;6.97;;;4.28;;
33403;SDS011;19751;40.274;18.268;2023-07-13T06:41:43;9.48;;;4.22;;
33403;SDS011;19751;40.274;18.268;2023-07-13T06:44:08;7.45;;;4.68;;
33403;SDS011;19751;40.274;18.268;2023-07-13T06:46:33;6.45;;;4.32;;
33403;SDS011;19751;40.274;18.268;2023-07-13T06:48:59;4.30;;;3.80;;
33403;SDS011;19751;40.274;18.268;2023-07-13T06:51:25;16.67;;;5.43;;
33403;SDS011;19751;40.274;18.268;2023-07-13T06:53:51;9.13;;;4.00;;
33403;SDS011;19751;40.274;18.268;2023-07-13T06:56:17;7.10;;;4.30;;
33403;SDS011;19751;40.274;18.268;2023-07-13T06:58:42;5.45;;;3.85;;
33403;SDS011;19751;40.274;18.268;2023-07-13T07:01:08;6.28;;;3.60;;
33403;SDS011;19751;40.274;18.268;2023-07-13T07:03:34;6.38;;;3.67;;
33403;SDS011;19751;40.274;18.268;2023-07-13T07:06:00;6.70;;;3.75;;
33403;SDS011;19751;40.274;18.268;2023-07-13T07:08:48;20.75;;;5.30;;
33403;SDS011;19751;40.274;18.268;2023-07-13T07:11:16;5.78;;;3.92;;
33403;SDS011;19751;40.274;18.268;2023-07-13T07:13:43;4.18;;;3.05;;
33403;SDS011;19751;40.274;18.268;2023-07-13T07:16:09;6.03;;;3.92;;
33403;SDS011;19751;40.274;18.268;2023-07-13T07:18:35;5.45;;;3.58;;
33403;SDS011;19751;40.274;18.268;2023-07-13T07:21:00;8.50;;;3.60;;
33403;SDS011;19751;40.274;18.268;2023-07-13T07:23:26;6.32;;;3.00;;
33403;SDS011;19751;40.274;18.268;2023-07-13T07:25:52;3.63;;;3.28;;
33403;SDS011;19751;40.274;18.268;2023-07-13T07:28:17;4.80;;;3.55;;
33403;SDS011;19751;40.274;18.268;2023-07-13T07:30:47;4.30;;;3.28;;
33403;SDS011;19751;40.274;18.268;2023-07-13T07:33:13;6.45;;;3.47;;
33403;SDS011;19751;40.274;18.268;2023-07-13T07:35:39;5.72;;;3.53;;
33403;SDS011;19751;40.274;18.268;2023-07-13T07:38:05;5.43;;;3.38;;
33403;SDS011;19751;40.274;18.268;2023-07-13T07:40:36;5.10;;;3.33;;
33403;SDS011;19751;40.274;18.268;2023-07-13T07:43:02;4.60;;;2.90;;
33403;SDS011;19751;40.274;18.268;2023-07-13T07:45:28;4.57;;;2.63;;
33403;SDS011;19751;40.274;18.268;2023-07-13T07:47:53;6.93;;;2.70;;
33403;SDS011;19751;40.274;18.268;2023-07-13T07:50:20;7.13;;;3.08;;
33403;SDS011;19751;40.274;18.268;2023-07-13T07:52:45;4.65;;;2.72;;
33403;SDS011;19751;40.274;18.268;2023-07-13T07:55:10;5.72;;;3.05;;
33403;SDS011;19751;40.274;18.268;2023-07-13T07:57:36;5.03;;;2.88;;
33403;SDS011;19751;40.274;18.268;2023-07-13T08:00:02;3.60;;;2.72;;
33403;SDS011;19751;40.274;18.268;2023-07-13T08:02:28;4.05;;;2.92;;
33403;SDS011;19751;40.274;18.268;2023-07-13T08:04:53;6.00;;;3.22;;
33403;SDS011;19751;40.274;18.268;2023-07-13T08:07:19;6.80;;;3.33;;
33403;SDS011;19751;40.274;18.268;2023-07-13T08:09:44;5.65;;;3.13;;
33403;SDS011;19751;40.274;18.268;2023-07-13T08:12:09;4.75;;;2.92;;
33403;SDS011;19751;40.274;18.268;2023-07-13T08:14:35;4.07;;;2.80;;
33403;SDS011;19751;40.274;18.268;2023-07-13T08:17:00;3.97;;;2.78;;
33403;SDS011;19751;40.274;18.268;2023-07-13T08:19:26;8.43;;;2.75;;
33403;SDS011;19751;40.274;18.268;2023-07-13T08:21:51;8.85;;;3.10;;
33403;SDS011;19751;40.274;18.268;2023-07-13T08:24:17;4.35;;;2.97;;
33403;SDS011;19751;40.274;18.268;2023-07-13T08:26:44;5.47;;;3.15;;
33403;SDS011;19751;40.274;18.268;2023-07-13T08:29:11;3.22;;;2.90;;
33403;SDS011;19751;40.274;18.268;2023-07-13T08:31:36;12.43;;;2.90;;
33403;SDS011;19751;40.274;18.268;2023-07-13T08:34:02;4.13;;;3.25;;
33403;SDS011;19751;40.274;18.268;2023-07-13T08:36:28;5.40;;;2.47;;
33403;SDS011;19751;40.274;18.268;2023-07-13T08:38:54;7.20;;;2.85;;
33403;SDS011;19751;40.274;18.268;2023-07-13T08:41:20;4.10;;;2.65;;
33403;SDS011;19751;40.274;18.268;2023-07-13T08:43:47;7.35;;;2.75;;
33403;SDS011;19751;40.274;18.268;2023-07-13T08:48:46;3.63;;;2.40;;
33403;SDS011;19751;40.274;18.268;2023-07-13T08:53:48;5.50;;;2.83;;
33403;SDS011;19751;40.274;18.268;2023-07-13T08:56:18;3.15;;;2.85;;
33403;SDS011;19751;40.274;18.268;2023-07-13T08:58:48;6.70;;;2.28;;
33403;SDS011;19751;40.274;18.268;2023-07-13T09:04:08;4.20;;;2.22;;
33403;SDS011;19751;40.274;18.268;2023-07-13T09:07:03;2.83;;;2.53;;
33403;SDS011;19751;40.274;18.268;2023-07-13T09:12:19;2.83;;;2.03;;
33403;SDS011;19751;40.274;18.268;2023-07-13T09:14:49;2.63;;;2.40;;
33403;SDS011;19751;40.274;18.268;2023-07-13T09:20:04;5.28;;;3.10;;
33403;SDS011;19751;40.274;18.268;2023-07-13T09:22:50;5.13;;;2.47;;
33403;SDS011;19751;40.274;18.268;2023-07-13T09:25:35;3.33;;;3.00;;
33403;SDS011;19751;40.274;18.268;2023-07-13T09:28:10;4.03;;;3.05;;
33403;SDS011;19751;40.274;18.268;2023-07-13T09:33:29;13.07;;;8.00;;
33403;SDS011;19751;40.274;18.268;2023-07-13T09:35:59;8.15;;;6.10;;
33403;SDS011;19751;40.274;18.268;2023-07-13T09:38:27;8.45;;;6.88;;
33403;SDS011;19751;40.274;18.268;2023-07-13T09:41:03;7.95;;;5.63;;
33403;SDS011;19751;40.274;18.268;2023-07-13T09:44:00;4.97;;;4.47;;
33403;SDS011;19751;40.274;18.268;2023-07-13T09:46:26;5.78;;;3.75;;
33403;SDS011;19751;40.274;18.268;2023-07-13T09:48:51;5.38;;;2.95;;
33403;SDS011;19751;40.274;18.268;2023-07-13T09:51:17;9.35;;;3.28;;
33403;SDS011;19751;40.274;18.268;2023-07-13T09:53:43;11.23;;;3.90;;
33403;SDS011;19751;40.274;18.268;2023-07-13T09:56:22;6.60;;;3.22;;
33403;SDS011;19751;40.274;18.268;2023-07-13T09:58:51;5.22;;;3.35;;
33403;SDS011;19751;40.274;18.268;2023-07-13T10:01:30;5.13;;;3.05;;
33403;SDS011;19751;40.274;18.268;2023-07-13T10:04:12;3.53;;;3.22;;
33403;SDS011;19751;40.274;18.268;2023-07-13T10:06:39;5.07;;;3.28;;
33403;SDS011;19751;40.274;18.268;2023-07-13T10:09:08;4.50;;;3.50;;
33403;SDS011;19751;40.274;18.268;2023-07-13T10:11:35;4.47;;;3.55;;
33403;SDS011;19751;40.274;18.268;2023-07-13T10:16:37;4.95;;;4.15;;
33403;SDS011;19751;40.274;18.268;2023-07-13T10:21:52;3.13;;;2.83;;
33403;SDS011;19751;40.274;18.268;2023-07-13T10:24:29;4.68;;;3.85;;
33403;SDS011;19751;40.274;18.268;2023-07-13T10:27:01;7.53;;;3.13;;
33403;SDS011;19751;40.274;18.268;2023-07-13T10:29:50;5.82;;;2.85;;
33403;SDS011;19751;40.274;18.268;2023-07-13T10:32:21;4.85;;;3.55;;
33403;SDS011;19751;40.274;18.268;2023-07-13T10:34:49;6.00;;;3.60;;
33403;SDS011;19751;40.274;18.268;2023-07-13T10:37:22;5.60;;;4.07;;
33403;SDS011;19751;40.274;18.268;2023-07-13T10:39:52;5.43;;;3.50;;
33403;SDS011;19751;40.274;18.268;2023-07-13T10:42:35;4.30;;;3.90;;
33403;SDS011;19751;40.274;18.268;2023-07-13T10:45:14;4.20;;;3.75;;
33403;SDS011;19751;40.274;18.268;2023-07-13T10:47:43;5.35;;;4.10;;
33403;SDS011;19751;40.274;18.268;2023-07-13T10:50:20;5.55;;;3.50;;
33403;SDS011;19751;40.274;18.268;2023-07-13T10:53:36;5.72;;;3.65;;
33403;SDS011;19751;40.274;18.268;2023-07-13T11:03:31;6.90;;;3.80;;
33403;SDS011;19751;40.274;18.268;2023-07-13T11:08:34;4.40;;;3.28;;
33403;SDS011;19751;40.274;18.268;2023-07-13T11:11:02;3.92;;;3.17;;
33403;SDS011;19751;40.274;18.268;2023-07-13T11:13:55;6.70;;;3.00;;
33403;SDS011;19751;40.274;18.268;2023-07-13T11:18:49;4.65;;;3.63;;
33403;SDS011;19751;40.274;18.268;2023-07-13T11:21:18;3.83;;;3.35;;
33403;SDS011;19751;40.274;18.268;2023-07-13T11:23:52;3.42;;;3.00;;
33403;SDS011;19751;40.274;18.268;2023-07-13T11:26:43;8.63;;;3.35;;
33403;SDS011;19751;40.274;18.268;2023-07-13T11:31:39;7.15;;;3.78;;
33403;SDS011;19751;40.274;18.268;2023-07-13T11:34:06;8.65;;;4.72;;
33403;SDS011;19751;40.274;18.268;2023-07-13T11:36:39;7.00;;;4.32;;
33403;SDS011;19751;40.274;18.268;2023-07-13T11:39:19;7.30;;;4.38;;
33403;SDS011;19751;40.274;18.268;2023-07-13T11:41:53;10.57;;;4.63;;
33403;SDS011;19751;40.274;18.268;2023-07-13T11:44:23;4.53;;;4.10;;
33403;SDS011;19751;40.274;18.268;2023-07-13T11:46:53;4.30;;;3.83;;
33403;SDS011;19751;40.274;18.268;2023-07-13T11:49:29;5.88;;;3.97;;
33403;SDS011;19751;40.274;18.268;2023-07-13T11:51:57;5.47;;;3.67;;
33403;SDS011;19751;40.274;18.268;2023-07-13T11:54:25;5.60;;;3.60;;
33403;SDS011;19751;40.274;18.268;2023-07-13T11:57:06;4.80;;;4.30;;
33403;SDS011;19751;40.274;18.268;2023-07-13T11:59:46;5.72;;;4.50;;
33403;SDS011;19751;40.274;18.268;2023-07-13T12:02:16;5.50;;;3.55;;
33403;SDS011;19751;40.274;18.268;2023-07-13T12:04:50;3.67;;;3.08;;
33403;SDS011;19751;40.274;18.268;2023-07-13T12:07:17;4.65;;;3.50;;
33403;SDS011;19751;40.274;18.268;2023-07-13T12:09:44;5.80;;;4.97;;
33403;SDS011;19751;40.274;18.268;2023-07-13T12:12:11;6.90;;;5.15;;
33403;SDS011;19751;40.274;18.268;2023-07-13T12:14:42;7.33;;;5.30;;
33403;SDS011;19751;40.274;18.268;2023-07-13T12:17:09;5.82;;;4.72;;
33403;SDS011;19751;40.274;18.268;2023-07-13T12:19:40;4.47;;;4.03;;
33403;SDS011;19751;40.274;18.268;2023-07-13T12:22:08;4.70;;;3.78;;
33403;SDS011;19751;40.274;18.268;2023-07-13T12:24:37;5.28;;;4.78;;
33403;SDS011;19751;40.274;18.268;2023-07-13T12:27:04;4.38;;;3.72;;
33403;SDS011;19751;40.274;18.268;2023-07-13T12:29:31;4.30;;;3.88;;
33403;SDS011;19751;40.274;18.268;2023-07-13T12:31:57;6.80;;;4.85;;
33403;SDS011;19751;40.274;18.268;2023-07-13T12:34:25;6.45;;;5.03;;
33403;SDS011;19751;40.274;18.268;2023-07-13T12:36:55;7.78;;;5.70;;
33403;SDS011;19751;40.274;18.268;2023-07-13T12:39:25;7.03;;;5.13;;
33403;SDS011;19751;40.274;18.268;2023-07-13T12:42:19;5.15;;;4.65;;
33403;SDS011;19751;40.274;18.268;2023-07-13T12:44:52;5.60;;;5.05;;
33403;SDS011;19751;40.274;18.268;2023-07-13T12:47:42;8.02;;;6.45;;
33403;SDS011;19751;40.274;18.268;2023-07-13T12:50:14;7.85;;;5.32;;
33403;SDS011;19751;40.274;18.268;2023-07-13T12:52:43;5.88;;;4.10;;
33403;SDS011;19751;40.274;18.268;2023-07-13T12:55:19;8.75;;;4.38;;
33403;SDS011;19751;40.274;18.268;2023-07-13T12:57:50;6.40;;;5.80;;
33403;SDS011;19751;40.274;18.268;2023-07-13T13:00:33;5.53;;;4.93;;
33403;SDS011;19751;40.274;18.268;2023-07-13T13:03:49;6.97;;;4.55;;
33403;SDS011;19751;40.274;18.268;2023-07-13T13:08:51;5.05;;;4.07;;
33403;SDS011;19751;40.274;18.268;2023-07-13T13:11:23;5.22;;;4.35;;
33403;SDS011;19751;40.274;18.268;2023-07-13T13:13:54;6.60;;;4.65;;
33403;SDS011;19751;40.274;18.268;2023-07-13T13:16:24;10.02;;;5.22;;
33403;SDS011;19751;40.274;18.268;2023-07-13T13:19:02;7.82;;;4.85;;
33403;SDS011;19751;40.274;18.268;2023-07-13T13:21:50;6.18;;;3.95;;
33403;SDS011;19751;40.274;18.268;2023-07-13T13:24:21;5.03;;;3.85;;
33403;SDS011;19751;40.274;18.268;2023-07-13T13:26:49;8.93;;;4.63;;
33403;SDS011;19751;40.274;18.268;2023-07-13T13:29:18;5.28;;;4.35;;
33403;SDS011;19751;40.274;18.268;2023-07-13T13:31:45;4.55;;;4.15;;
33403;SDS011;19751;40.274;18.268;2023-07-13T13:34:13;8.00;;;5.10;;
33403;SDS011;19751;40.274;18.268;2023-07-13T13:36:40;5.38;;;3.67;;
33403;SDS011;19751;40.274;18.268;2023-07-13T13:39:16;4.53;;;3.15;;
33403;SDS011;19751;40.274;18.268;2023-07-13T13:41:43;5.05;;;3.55;;
33403;SDS011;19751;40.274;18.268;2023-07-13T13:44:09;4.07;;;3.08;;
33403;SDS011;19751;40.274;18.268;2023-07-13T13:46:35;5.28;;;4.13;;
33403;SDS011;19751;40.274;18.268;2023-07-13T13:49:01;4.43;;;3.85;;
33403;SDS011;19751;40.274;18.268;2023-07-13T13:51:27;6.30;;;3.92;;
33403;SDS011;19751;40.274;18.268;2023-07-13T13:53:54;5.10;;;3.63;;
33403;SDS011;19751;40.274;18.268;2023-07-13T13:56:20;3.50;;;3.17;;
33403;SDS011;19751;40.274;18.268;2023-07-13T13:58:46;4.60;;;3.22;;
33403;SDS011;19751;40.274;18.268;2023-07-13T14:01:12;4.78;;;3.22;;
33403;SDS011;19751;40.274;18.268;2023-07-13T14:03:47;3.40;;;3.10;;
33403;SDS011;19751;40.274;18.268;2023-07-13T14:06:22;5.82;;;3.58;;
33403;SDS011;19751;40.274;18.268;2023-07-13T14:08:48;6.85;;;3.67;;
33403;SDS011;19751;40.274;18.268;2023-07-13T14:11:14;4.65;;;3.17;;
33403;SDS011;19751;40.274;18.268;2023-07-13T14:13:49;7.10;;;3.00;;
33403;SDS011;19751;40.274;18.268;2023-07-13T14:16:20;4.53;;;3.00;;
33403;SDS011;19751;40.274;18.268;2023-07-13T14:18:47;3.67;;;3.35;;
33403;SDS011;19751;40.274;18.268;2023-07-13T14:21:14;4.15;;;3.42;;
33403;SDS011;19751;40.274;18.268;2023-07-13T14:23:43;7.10;;;3.35;;
33403;SDS011;19751;40.274;18.268;2023-07-13T14:31:38;3.80;;;3.00;;
33403;SDS011;19751;40.274;18.268;2023-07-13T14:34:04;3.53;;;3.20;;
33403;SDS011;19751;40.274;18.268;2023-07-13T14:36:33;5.22;;;2.78;;
33403;SDS011;19751;40.274;18.268;2023-07-13T14:39:09;3.70;;;2.70;;
33403;SDS011;19751;40.274;18.268;2023-07-13T14:41:38;4.20;;;3.00;;
33403;SDS011;19751;40.274;18.268;2023-07-13T14:44:10;4.30;;;3.50;;
33403;SDS011;19751;40.274;18.268;2023-07-13T14:46:39;4.90;;;3.03;;
33403;SDS011;19751;40.274;18.268;2023-07-13T14:49:07;4.63;;;2.75;;
33403;SDS011;19751;40.274;18.268;2023-07-13T14:51:40;5.50;;;3.33;;
33403;SDS011;19751;40.274;18.268;2023-07-13T14:54:05;4.22;;;2.78;;
33403;SDS011;19751;40.274;18.268;2023-07-13T14:56:34;12.18;;;4.28;;
33403;SDS011;19751;40.274;18.268;2023-07-13T14:59:00;5.72;;;3.63;;
33403;SDS011;19751;40.274;18.268;2023-07-13T15:01:25;3.28;;;2.92;;
33403;SDS011;19751;40.274;18.268;2023-07-13T15:03:52;10.52;;;2.90;;
33403;SDS011;19751;40.274;18.268;2023-07-13T15:06:18;5.80;;;2.58;;
33403;SDS011;19751;40.274;18.268;2023-07-13T15:08:44;3.30;;;2.33;;
33403;SDS011;19751;40.274;18.268;2023-07-13T15:11:10;2.35;;;1.98;;
33403;SDS011;19751;40.274;18.268;2023-07-13T15:13:37;5.93;;;2.30;;
33403;SDS011;19751;40.274;18.268;2023-07-13T15:16:04;3.53;;;2.25;;
33403;SDS011;19751;40.274;18.268;2023-07-13T15:18:30;4.10;;;2.90;;
33403;SDS011;19751;40.274;18.268;2023-07-13T15:20:56;5.00;;;2.35;;
33403;SDS011;19751;40.274;18.268;2023-07-13T15:23:23;4.97;;;2.40;;
33403;SDS011;19751;40.274;18.268;2023-07-13T15:25:49;3.75;;;2.42;;